createdAt,value
2023-01-26T00:01:52.489Z,29.10
2023-01-26T00:04:20.625Z,29.57
2023-01-26T00:06:49.520Z,27.30
2023-01-26T00:09:17.251Z,29.03
2023-01-26T00:11:45.366Z,27.50
2023-01-26T00:14:13.115Z,27.60
2023-01-26T00:16:42.528Z,28.43
2023-01-26T00:19:10.813Z,27.33
2023-01-26T00:21:38.604Z,28.30
2023-01-26T00:24:07.083Z,29.67
2023-01-26T00:26:34.838Z,28.93
2023-01-26T00:29:02.615Z,29.23
2023-01-26T00:31:30.401Z,29.57
2023-01-26T00:33:59.582Z,27.57
2023-01-26T00:36:28.655Z,28.73
2023-01-26T00:38:56.508Z,28.53
2023-01-26T00:41:41.573Z,29.53
2023-01-26T00:44:09.471Z,30.20
2023-01-26T00:46:38.298Z,30.47
2023-01-26T00:49:08.313Z,27.17
2023-01-26T00:51:36.019Z,28.57
2023-01-26T00:54:03.855Z,29.23
2023-01-26T00:56:31.779Z,29.20
2023-01-26T00:58:59.722Z,27.83
2023-01-26T01:01:27.605Z,28.80
2023-01-26T01:03:55.350Z,28.33
2023-01-26T01:06:24.917Z,27.50
2023-01-26T01:08:52.903Z,27.00
2023-01-26T01:11:20.887Z,26.37
2023-01-26T01:13:48.975Z,26.47
2023-01-26T01:16:18.190Z,26.43
2023-01-26T01:18:46.322Z,27.63
2023-01-26T01:21:15.749Z,26.27
2023-01-26T01:23:45.509Z,27.30
2023-01-26T01:26:14.646Z,26.77
2023-01-26T01:28:44.060Z,27.43
2023-01-26T01:31:13.986Z,27.97
2023-01-26T01:33:42.911Z,25.87
2023-01-26T01:36:13.020Z,27.13
2023-01-26T01:38:41.158Z,27.37
2023-01-26T01:41:10.910Z,27.27
2023-01-26T01:43:39.198Z,28.67
2023-01-26T01:46:13.083Z,28.23
2023-01-26T01:48:48.675Z,29.23
2023-01-26T01:51:21.534Z,25.00
2023-01-26T01:53:52.919Z,26.97
2023-01-26T01:56:26.170Z,28.73
2023-01-26T01:58:58.023Z,28.33
2023-01-26T02:01:26.074Z,27.47
2023-01-26T02:03:58.112Z,28.87
2023-01-26T02:06:31.196Z,28.50
2023-01-26T02:09:00.588Z,28.63
2023-01-26T02:11:34.920Z,29.57
2023-01-26T02:14:06.189Z,29.17
2023-01-26T02:16:34.282Z,28.47
2023-01-26T02:19:02.254Z,27.73
2023-01-26T02:21:31.517Z,29.30
2023-01-26T02:24:09.975Z,28.77
2023-01-26T02:26:39.529Z,29.80
2023-01-26T02:29:10.910Z,29.10
2023-01-26T02:31:39.996Z,28.77
2023-01-26T02:34:07.997Z,29.00
2023-01-26T02:36:36.051Z,29.80
2023-01-26T02:39:23.525Z,29.07
2023-01-26T02:42:11.690Z,29.73
2023-01-26T02:44:41.879Z,28.47
2023-01-26T02:47:14.454Z,29.50
2023-01-26T02:49:51.016Z,30.60
2023-01-26T02:52:21.055Z,32.43
2023-01-26T02:55:06.137Z,29.47
2023-01-26T02:57:35.809Z,28.57
2023-01-26T03:00:03.840Z,30.47
2023-01-26T03:02:31.830Z,31.73
2023-01-26T03:04:59.589Z,31.63
2023-01-26T03:07:27.643Z,30.60
2023-01-26T03:09:55.472Z,31.27
2023-01-26T03:12:23.113Z,32.73
2023-01-26T03:15:16.495Z,29.57
2023-01-26T03:17:45.301Z,30.47
2023-01-26T03:20:30.510Z,30.43
2023-01-26T03:23:16.312Z,28.63
2023-01-26T03:26:01.524Z,31.80
2023-01-26T03:28:29.300Z,30.80
2023-01-26T03:30:59.641Z,30.50
2023-01-26T03:33:27.505Z,33.60
2023-01-26T03:35:56.044Z,30.47
2023-01-26T03:38:23.705Z,31.00
2023-01-26T03:41:08.780Z,30.40
2023-01-26T03:43:54.088Z,31.13
2023-01-26T03:46:41.450Z,33.77
2023-01-26T03:49:26.798Z,30.73
2023-01-26T03:52:12.178Z,30.47
2023-01-26T03:54:57.485Z,33.83
2023-01-26T03:57:25.253Z,32.00
2023-01-26T03:59:53.029Z,31.70
2023-01-26T04:02:39.585Z,31.73
2023-01-26T04:05:25.389Z,30.70
2023-01-26T04:08:10.481Z,32.23
2023-01-26T04:10:38.494Z,29.00
2023-01-26T04:13:23.625Z,28.30
2023-01-26T04:16:09.245Z,31.27
2023-01-26T04:18:56.119Z,32.23
2023-01-26T04:21:30.422Z,29.63
2023-01-26T04:23:59.077Z,32.97
2023-01-26T04:26:34.952Z,32.67
2023-01-26T04:29:03.770Z,31.77
2023-01-26T04:31:32.868Z,31.57
2023-01-26T04:34:04.378Z,31.77
2023-01-26T04:36:32.904Z,31.97
2023-01-26T04:39:01.877Z,31.73
2023-01-26T04:41:31.541Z,30.67
2023-01-26T04:43:59.621Z,30.20
2023-01-26T04:46:28.789Z,31.47
2023-01-26T04:48:56.553Z,33.00
2023-01-26T04:51:25.735Z,29.87
2023-01-26T04:53:53.754Z,32.17
2023-01-26T04:56:24.319Z,31.07
2023-01-26T04:58:52.562Z,30.97
2023-01-26T05:01:20.930Z,30.40
2023-01-26T05:03:49.528Z,32.40
2023-01-26T05:06:17.535Z,32.27
2023-01-26T05:08:47.108Z,32.63
2023-01-26T05:11:14.987Z,31.23
2023-01-26T05:13:43.894Z,31.40
2023-01-26T05:16:13.909Z,31.77
2023-01-26T05:18:42.335Z,31.47
2023-01-26T05:21:11.202Z,32.73
2023-01-26T05:23:39.828Z,30.43
2023-01-26T05:26:09.443Z,32.33
2023-01-26T05:28:38.146Z,31.87
2023-01-26T05:31:06.170Z,30.40
2023-01-26T05:33:34.133Z,28.70
2023-01-26T05:36:06.799Z,32.60
2023-01-26T05:38:34.893Z,30.33
2023-01-26T05:41:02.804Z,30.00
2023-01-26T05:43:31.932Z,30.53
2023-01-26T05:45:59.631Z,29.90
2023-01-26T05:48:27.691Z,32.63
2023-01-26T05:51:03.962Z,31.03
2023-01-26T05:53:32.745Z,28.03
2023-01-26T05:56:01.276Z,29.73
2023-01-26T05:58:29.129Z,25.93
2023-01-26T06:00:59.719Z,28.47
2023-01-26T06:03:27.365Z,29.90
2023-01-26T06:05:55.854Z,27.03
2023-01-26T06:08:23.812Z,27.10
2023-01-26T06:10:51.958Z,27.90
2023-01-26T06:13:20.318Z,26.67
2023-01-26T06:15:48.641Z,27.73
2023-01-26T06:18:17.849Z,26.43
2023-01-26T06:20:46.580Z,27.63
2023-01-26T06:23:14.272Z,27.07
2023-01-26T06:25:42.160Z,27.50
2023-01-26T06:28:09.903Z,27.93
2023-01-26T06:30:38.396Z,27.40
2023-01-26T06:33:07.007Z,28.40
2023-01-26T06:35:37.286Z,27.50
2023-01-26T06:38:05.361Z,27.77
2023-01-26T06:40:35.008Z,27.33
2023-01-26T06:43:03.325Z,25.67
2023-01-26T06:45:30.995Z,28.90
2023-01-26T06:47:58.684Z,26.63
2023-01-26T06:50:32.614Z,28.13
2023-01-26T06:53:05.157Z,26.70
2023-01-26T06:55:37.120Z,28.97
2023-01-26T06:58:05.879Z,28.87
2023-01-26T07:00:33.622Z,27.97
2023-01-26T07:03:01.229Z,25.67
2023-01-26T07:05:29.246Z,26.40
2023-01-26T07:07:57.176Z,24.37
2023-01-26T07:10:26.751Z,26.93
2023-01-26T07:12:54.446Z,26.07
2023-01-26T07:15:22.580Z,23.47
2023-01-26T07:17:50.565Z,25.10
2023-01-26T07:20:18.522Z,24.07
2023-01-26T07:22:46.629Z,26.33
2023-01-26T07:25:14.445Z,23.53
2023-01-26T07:27:43.536Z,24.50
2023-01-26T07:30:14.324Z,24.67
2023-01-26T07:32:42.687Z,24.90
2023-01-26T07:35:10.766Z,24.13
2023-01-26T07:37:38.569Z,21.83
2023-01-26T07:40:08.796Z,22.87
2023-01-26T07:42:36.849Z,24.37
2023-01-26T07:45:07.137Z,24.70
2023-01-26T07:47:35.914Z,26.03
2023-01-26T07:50:03.891Z,24.50
2023-01-26T07:52:31.777Z,25.17
2023-01-26T07:54:59.425Z,25.57
2023-01-26T07:57:27.283Z,25.57
2023-01-26T07:59:56.785Z,25.67
2023-01-26T08:02:26.719Z,25.83
2023-01-26T08:04:54.533Z,24.77
2023-01-26T08:07:22.509Z,26.70
2023-01-26T08:09:50.285Z,25.83
2023-01-26T08:12:18.059Z,26.43
2023-01-26T08:14:47.458Z,25.30
2023-01-26T08:17:17.692Z,25.57
2023-01-26T08:19:47.637Z,27.73
2023-01-26T08:22:15.706Z,27.17
2023-01-26T08:24:43.715Z,25.53
2023-01-26T08:27:11.545Z,27.07
2023-01-26T08:29:39.600Z,27.60
2023-01-26T08:32:08.254Z,28.07
2023-01-26T08:34:36.676Z,27.07
2023-01-26T08:37:06.136Z,26.60
2023-01-26T08:39:33.986Z,25.63
2023-01-26T08:42:01.705Z,25.90
2023-01-26T08:44:29.586Z,25.10
2023-01-26T08:46:58.392Z,28.07
2023-01-26T08:49:26.421Z,26.03
2023-01-26T08:51:54.189Z,31.50
2023-01-26T08:54:23.452Z,26.73
2023-01-26T08:56:51.401Z,26.60
2023-01-26T08:59:19.326Z,27.40
2023-01-26T09:01:50.124Z,25.67
2023-01-26T09:04:18.158Z,27.60
2023-01-26T09:06:46.048Z,25.07
2023-01-26T09:09:15.586Z,25.13
2023-01-26T09:11:44.801Z,25.00
2023-01-26T09:14:13.091Z,25.30
2023-01-26T09:16:41.052Z,25.60
2023-01-26T09:19:09.107Z,24.30
2023-01-26T09:21:36.929Z,24.57
2023-01-26T09:24:05.338Z,23.30
2023-01-26T09:26:33.124Z,22.83
2023-01-26T09:29:02.365Z,22.73
2023-01-26T09:31:31.673Z,22.03
2023-01-26T09:33:59.841Z,21.60
2023-01-26T09:36:28.792Z,23.23
2023-01-26T09:38:57.785Z,21.40
2023-01-26T09:41:53.214Z,21.90
2023-01-26T09:44:26.158Z,21.23
2023-01-26T09:47:05.271Z,21.20
2023-01-26T09:49:46.140Z,20.00
2023-01-26T09:52:22.234Z,20.10
2023-01-26T09:54:52.637Z,22.90
2023-01-26T09:57:25.790Z,22.53
2023-01-26T09:59:59.828Z,20.57
2023-01-26T10:02:40.353Z,22.23
2023-01-26T10:05:16.199Z,22.60
2023-01-26T10:07:45.729Z,20.97
2023-01-26T10:10:20.803Z,20.23
2023-01-26T10:12:50.663Z,22.40
2023-01-26T10:15:32.960Z,20.80
2023-01-26T10:18:04.178Z,19.80
2023-01-26T10:20:34.809Z,20.77
2023-01-26T10:23:05.691Z,22.50
2023-01-26T10:25:37.420Z,21.43
2023-01-26T10:28:14.011Z,22.50
2023-01-26T10:30:45.190Z,20.67
2023-01-26T10:33:17.623Z,21.97
2023-01-26T10:35:46.225Z,23.00
2023-01-26T10:38:42.555Z,21.40
2023-01-26T10:41:29.004Z,23.87
2023-01-26T10:43:59.068Z,21.83
2023-01-26T10:46:32.125Z,21.43
2023-01-26T10:49:01.729Z,22.53
2023-01-26T10:51:31.675Z,21.73
2023-01-26T10:54:23.566Z,22.33
2023-01-26T10:56:54.723Z,19.90
2023-01-26T10:59:34.241Z,18.27
2023-01-26T11:02:20.811Z,19.00
2023-01-26T11:05:05.268Z,19.27
2023-01-26T11:07:35.831Z,19.83
2023-01-26T11:10:19.602Z,21.63
2023-01-26T11:12:48.281Z,17.63
2023-01-26T11:15:21.713Z,19.03
2023-01-26T11:17:57.469Z,16.17
2023-01-26T11:20:42.018Z,16.23
2023-01-26T11:23:17.578Z,15.43
2023-01-26T11:25:59.572Z,16.07
2023-01-26T11:28:41.092Z,15.67
2023-01-26T11:31:21.510Z,17.37
2023-01-26T11:34:00.489Z,17.57
2023-01-26T11:36:38.868Z,16.50
2023-01-26T11:39:14.959Z,16.90
2023-01-26T11:41:52.772Z,17.77
2023-01-26T11:44:35.422Z,17.70
2023-01-26T11:47:15.006Z,17.37
2023-01-26T11:50:00.541Z,15.90
2023-01-26T11:52:37.151Z,16.47
2023-01-26T11:55:18.918Z,17.03
2023-01-26T11:58:00.233Z,16.50
2023-01-26T12:00:37.111Z,17.80
2023-01-26T12:03:07.257Z,17.30
2023-01-26T12:05:45.176Z,17.83
2023-01-26T12:08:22.580Z,15.70
2023-01-26T12:10:58.408Z,17.43
2023-01-26T12:13:36.612Z,16.63
2023-01-26T12:16:14.541Z,17.43
2023-01-26T12:18:58.704Z,18.07
2023-01-26T12:21:34.624Z,17.67
2023-01-26T12:24:04.150Z,17.53
2023-01-26T12:26:37.819Z,17.87
2023-01-26T12:29:12.631Z,17.27
2023-01-26T12:31:47.300Z,16.73
2023-01-26T12:34:16.097Z,18.03
2023-01-26T12:36:52.996Z,17.33
2023-01-26T12:39:30.185Z,17.47
2023-01-26T12:42:09.069Z,16.57
2023-01-26T12:44:41.652Z,14.73
2023-01-26T12:47:20.869Z,14.93
2023-01-26T12:49:54.421Z,14.63
2023-01-26T12:52:28.806Z,13.50
2023-01-26T12:55:03.885Z,14.50
2023-01-26T12:57:37.913Z,13.37
2023-01-26T13:00:18.489Z,12.93
2023-01-26T13:02:48.729Z,15.40
2023-01-26T13:05:27.989Z,14.03
2023-01-26T13:07:57.170Z,13.90
2023-01-26T13:10:28.841Z,12.93
2023-01-26T13:12:59.576Z,12.80
2023-01-26T13:15:29.498Z,13.13
2023-01-26T13:17:59.609Z,12.83
2023-01-26T13:20:52.352Z,12.83
2023-01-26T13:23:40.602Z,11.20
2023-01-26T13:26:50.339Z,11.33
2023-01-26T13:29:32.992Z,10.10
2023-01-26T13:32:03.460Z,10.33
2023-01-26T13:34:38.699Z,11.00
2023-01-26T13:37:13.560Z,11.30
2023-01-26T13:39:48.453Z,11.73
2023-01-26T13:42:22.055Z,11.07
2023-01-26T13:44:54.694Z,10.40
2023-01-26T13:47:29.625Z,10.87
2023-01-26T13:49:57.420Z,10.23
2023-01-26T13:52:27.229Z,10.70
2023-01-26T13:54:58.102Z,10.23
2023-01-26T13:57:27.610Z,9.83
2023-01-26T13:59:59.053Z,10.17
2023-01-26T14:02:31.284Z,9.80
2023-01-26T14:05:00.364Z,9.37
2023-01-26T14:07:30.407Z,9.97
2023-01-26T14:10:03.325Z,8.40
2023-01-26T14:12:35.110Z,7.70
2023-01-26T14:15:05.569Z,8.73
2023-01-26T14:17:36.785Z,7.87
2023-01-26T14:20:22.497Z,9.07
2023-01-26T14:23:04.467Z,8.07
2023-01-26T14:25:34.879Z,7.50
2023-01-26T14:28:03.025Z,7.77
2023-01-26T14:30:34.438Z,7.20
2023-01-26T14:33:07.436Z,6.70
2023-01-26T14:35:35.240Z,8.60
2023-01-26T14:38:07.536Z,7.27
2023-01-26T14:40:37.929Z,7.43
2023-01-26T14:43:06.027Z,7.80
2023-01-26T14:45:34.275Z,7.40
2023-01-26T14:48:06.091Z,7.30
2023-01-26T14:50:35.895Z,6.83
2023-01-26T14:53:05.120Z,5.80
2023-01-26T14:55:37.300Z,6.07
2023-01-26T14:58:15.854Z,6.90
2023-01-26T15:00:48.521Z,7.10
2023-01-26T15:03:24.861Z,7.90
2023-01-26T15:06:18.451Z,6.57
2023-01-26T15:08:56.368Z,7.13
2023-01-26T15:11:50.696Z,7.07
2023-01-26T15:14:33.534Z,6.70
2023-01-26T15:17:01.673Z,9.57
2023-01-26T15:19:33.574Z,7.60
2023-01-26T15:22:05.596Z,7.47
2023-01-26T15:24:33.844Z,6.73
2023-01-26T15:27:09.518Z,7.43
2023-01-26T15:29:38.431Z,7.10
2023-01-26T15:32:06.880Z,7.30
2023-01-26T15:34:36.899Z,6.10
2023-01-26T15:37:06.154Z,6.07
2023-01-26T15:39:34.103Z,7.77
2023-01-26T15:42:13.292Z,6.20
2023-01-26T15:44:41.376Z,6.93
2023-01-26T15:47:10.680Z,6.77
2023-01-26T15:49:38.665Z,6.60
2023-01-26T15:52:13.629Z,7.90
2023-01-26T15:54:41.672Z,8.30
2023-01-26T15:57:13.437Z,9.07
2023-01-26T15:59:46.307Z,8.30
2023-01-26T16:02:16.256Z,7.27
2023-01-26T16:04:44.606Z,6.27
2023-01-26T16:07:13.336Z,7.10
2023-01-26T16:09:41.665Z,6.57
2023-01-26T16:12:30.592Z,7.90
2023-01-26T16:14:58.761Z,6.60
2023-01-26T16:17:26.501Z,6.37
2023-01-26T16:19:54.989Z,6.43
2023-01-26T16:22:22.881Z,5.60
2023-01-26T16:24:50.713Z,7.00
2023-01-26T16:27:21.659Z,6.20
2023-01-26T16:29:50.009Z,8.30
2023-01-26T16:32:29.006Z,6.70
2023-01-26T16:34:57.134Z,6.83
2023-01-26T16:37:24.999Z,6.60
2023-01-26T16:39:52.919Z,7.17
2023-01-26T16:42:22.710Z,7.83
2023-01-26T16:44:50.638Z,7.57
2023-01-26T16:47:18.483Z,8.03
2023-01-26T16:49:46.212Z,6.50
2023-01-26T16:52:14.724Z,6.17
2023-01-26T16:54:42.414Z,6.57
2023-01-26T16:57:10.568Z,6.20
2023-01-26T16:59:40.201Z,7.37
2023-01-26T17:02:18.227Z,8.10
2023-01-26T17:04:46.144Z,8.53
2023-01-26T17:07:13.883Z,8.07
2023-01-26T17:09:41.804Z,8.57
2023-01-26T17:12:10.728Z,9.20
2023-01-26T17:14:40.063Z,11.17
2023-01-26T17:17:08.058Z,8.77
2023-01-26T17:19:35.796Z,9.70
2023-01-26T17:22:03.611Z,13.00
2023-01-26T17:24:32.557Z,12.13
2023-01-26T17:27:00.202Z,7.77
2023-01-26T17:29:28.170Z,8.57
2023-01-26T17:31:57.472Z,15.07
2023-01-26T17:34:25.484Z,9.60
2023-01-26T17:36:54.518Z,8.37
2023-01-26T17:39:24.099Z,9.90
2023-01-26T17:41:52.107Z,8.90
2023-01-26T17:44:19.762Z,8.30
2023-01-26T17:46:47.671Z,12.00
2023-01-26T17:49:17.628Z,8.47
2023-01-26T17:51:47.849Z,8.97
2023-01-26T17:54:15.527Z,8.30
2023-01-26T17:56:43.628Z,11.07
2023-01-26T17:59:13.106Z,10.30
2023-01-26T18:01:40.902Z,9.83
2023-01-26T18:04:10.083Z,10.53
2023-01-26T18:06:40.011Z,10.10
2023-01-26T18:09:08.254Z,10.10
2023-01-26T18:11:36.098Z,9.10
2023-01-26T18:14:04.236Z,9.43
2023-01-26T18:16:32.779Z,9.57
2023-01-26T18:19:04.377Z,9.37
2023-01-26T18:21:34.543Z,11.03
2023-01-26T18:24:06.191Z,8.87
2023-01-26T18:26:35.531Z,8.53
2023-01-26T18:29:03.425Z,9.47
2023-01-26T18:31:34.134Z,9.73
2023-01-26T18:34:03.236Z,10.47
2023-01-26T18:36:31.185Z,9.90
2023-01-26T18:39:02.018Z,10.63
2023-01-26T18:41:32.911Z,10.63
2023-01-26T18:44:03.064Z,9.40
2023-01-26T18:46:32.004Z,11.50
2023-01-26T18:49:00.879Z,11.87
2023-01-26T18:51:30.368Z,10.80
2023-01-26T18:53:58.784Z,10.63
2023-01-26T18:56:26.787Z,11.87
2023-01-26T18:58:56.464Z,10.93
2023-01-26T19:01:24.678Z,11.63
2023-01-26T19:03:55.752Z,12.37
2023-01-26T19:06:25.340Z,13.50
2023-01-26T19:08:59.484Z,10.60
2023-01-26T19:11:29.156Z,10.67
2023-01-26T19:13:58.418Z,10.03
2023-01-26T19:16:27.175Z,10.30
2023-01-26T19:18:55.683Z,10.33
2023-01-26T19:21:26.061Z,10.17
2023-01-26T19:23:55.734Z,10.00
2023-01-26T19:26:26.212Z,9.53
2023-01-26T19:28:55.240Z,11.53
2023-01-26T19:31:26.668Z,10.73
2023-01-26T19:33:56.141Z,9.50
2023-01-26T19:36:24.178Z,8.33
2023-01-26T19:38:52.769Z,8.57
2023-01-26T19:41:21.874Z,8.40
2023-01-26T19:43:50.424Z,8.17
2023-01-26T19:46:18.929Z,8.53
2023-01-26T19:48:48.620Z,9.10
2023-01-26T19:51:18.874Z,8.57
2023-01-26T19:53:49.032Z,10.13
2023-01-26T19:56:18.707Z,10.50
2023-01-26T19:58:51.903Z,8.53
2023-01-26T20:01:20.498Z,8.80
2023-01-26T20:03:52.063Z,8.90
2023-01-26T20:06:22.074Z,9.37
2023-01-26T20:08:50.960Z,9.67
2023-01-26T20:11:19.852Z,9.10
2023-01-26T20:13:48.765Z,9.33
2023-01-26T20:16:16.503Z,10.23
2023-01-26T20:18:44.307Z,9.70
2023-01-26T20:21:13.551Z,10.07
2023-01-26T20:23:53.583Z,9.50
2023-01-26T20:26:22.756Z,9.13
2023-01-26T20:28:50.805Z,9.70
2023-01-26T20:31:21.236Z,9.03
2023-01-26T20:33:50.959Z,11.00
2023-01-26T20:36:21.952Z,10.93
2023-01-26T20:38:50.742Z,10.33
2023-01-26T20:41:21.747Z,10.47
2023-01-26T20:43:59.152Z,11.17
2023-01-26T20:46:29.834Z,9.43
2023-01-26T20:48:58.350Z,10.03
2023-01-26T20:51:30.565Z,11.37
2023-01-26T20:53:59.573Z,13.23
2023-01-26T20:56:27.643Z,19.23
2023-01-26T20:58:56.727Z,13.10
2023-01-26T21:01:25.733Z,14.83
2023-01-26T21:03:53.872Z,13.33
2023-01-26T21:06:24.515Z,15.03
2023-01-26T21:08:58.437Z,13.57
2023-01-26T21:11:28.866Z,16.37
2023-01-26T21:13:57.485Z,12.30
2023-01-26T21:16:26.439Z,14.07
2023-01-26T21:18:54.845Z,15.77
2023-01-26T21:21:24.185Z,11.63
2023-01-26T21:23:52.555Z,16.23
2023-01-26T21:26:23.100Z,12.97
2023-01-26T21:28:52.405Z,11.80
2023-01-26T21:31:21.321Z,12.53
2023-01-26T21:33:51.184Z,11.03
2023-01-26T21:36:21.156Z,12.17
2023-01-26T21:38:52.414Z,11.27
2023-01-26T21:41:40.778Z,12.13
2023-01-26T21:44:12.893Z,11.30
2023-01-26T21:46:41.475Z,11.37
2023-01-26T21:49:10.814Z,11.80
2023-01-26T21:51:56.117Z,10.47
2023-01-26T21:54:24.093Z,11.43
2023-01-26T21:56:53.409Z,10.53
2023-01-26T21:59:20.090Z,10.13
2023-01-26T22:01:50.390Z,10.97
2023-01-26T22:04:19.798Z,9.47
2023-01-26T22:06:47.869Z,10.07
2023-01-26T22:09:17.256Z,13.17
2023-01-26T22:11:45.513Z,13.80
2023-01-26T22:14:17.988Z,12.53
2023-01-26T22:16:46.209Z,11.23
2023-01-26T22:19:14.634Z,11.40
2023-01-26T22:21:44.304Z,11.23
2023-01-26T22:24:14.582Z,11.10
2023-01-26T22:26:43.088Z,8.40
2023-01-26T22:29:12.511Z,8.03
2023-01-26T22:31:41.911Z,7.63
2023-01-26T22:34:11.695Z,8.67
2023-01-26T22:36:40.276Z,8.77
2023-01-26T22:39:08.163Z,10.10
2023-01-26T22:41:37.685Z,9.63
2023-01-26T22:44:05.926Z,9.77
2023-01-26T22:46:34.170Z,8.73
2023-01-26T22:49:04.746Z,6.47
2023-01-26T22:51:36.922Z,5.77
2023-01-26T22:54:05.296Z,5.53
2023-01-26T22:56:33.616Z,5.40
2023-01-26T22:59:01.553Z,5.40
2023-01-26T23:01:31.814Z,5.30
2023-01-26T23:04:00.594Z,5.80
2023-01-26T23:06:30.813Z,5.27
2023-01-26T23:09:01.514Z,6.17
2023-01-26T23:11:30.562Z,5.90
2023-01-26T23:14:00.440Z,6.07
2023-01-26T23:16:28.866Z,5.97
2023-01-26T23:18:58.569Z,6.00
2023-01-26T23:21:28.251Z,6.00
2023-01-26T23:23:59.340Z,7.13
2023-01-26T23:26:27.144Z,6.57
2023-01-26T23:28:55.194Z,7.80
2023-01-26T23:31:23.262Z,7.47
2023-01-26T23:33:51.022Z,7.93
2023-01-26T23:36:18.728Z,7.80
2023-01-26T23:38:46.779Z,7.70
2023-01-26T23:41:16.283Z,7.30
2023-01-26T23:43:45.432Z,7.77
2023-01-26T23:46:14.026Z,7.20
2023-01-26T23:48:41.926Z,8.43
2023-01-26T23:51:12.566Z,7.40
2023-01-26T23:53:40.948Z,7.80
2023-01-26T23:56:11.621Z,8.10
2023-01-26T23:58:41.218Z,8.10
